Time;durP1;ratioP1;P1;durP2;ratioP2;P2;SDS_P1;SDS_P2;PMS_P1;PMS_P2;Temp;Humidity;BMP_temperature;BMP_pressure;BME280_temperature;BME280_humidity;BME280_pressure;Samples;Min_cycle;Max_cycle;Signal;HPM_P1;HPM_P2
2023/05/21 00:01:15;;;;;;;;;;;;;;;23.31;48.22;100001.81;4446069;32;34046;-80
2023/05/21 00:03:45;;;;;;;;;;;;;;;23.41;48.10;99999.13;4434890;32;33443;-80
2023/05/21 00:06:14;;;;;;;;;;;;;;;23.00;48.94;99997.47;4439870;32;33478;-80
2023/05/21 00:08:41;;;;;;;;;;;;;;;23.13;48.44;99994.81;4443637;32;34933;-80
2023/05/21 00:11:09;;;;;;;;;;;;;;;23.07;48.74;99999.25;4415683;32;34605;-80
2023/05/21 00:13:37;;;;;;;;;;;;;;;22.97;48.76;99996.59;4449528;32;34313;-80
2023/05/21 00:16:04;;;;;;;;;;;;;;;23.15;48.23;99986.91;4448465;32;33613;-80
2023/05/21 00:18:33;;;;;;;;;;;;;;;23.31;47.75;99993.00;4439320;32;33397;-80
2023/05/21 00:21:00;;;;;;;;;;;;;;;22.71;49.54;99998.41;4449405;32;33864;-80
2023/05/21 00:23:31;;;;;;;;;;;;;;;22.51;50.16;100004.59;4448902;32;34983;-80
2023/05/21 00:25:59;;;;;;;;;;;;;;;22.74;49.62;100007.22;4441228;32;33522;-79
2023/05/21 00:28:26;;;;;;;;;;;;;;;23.62;47.44;100009.56;4452631;32;34208;-80
2023/05/21 00:30:53;;;;;;;;;;;;;;;22.81;49.57;100007.19;4437705;32;34200;-80
2023/05/21 00:33:25;;;;;;;;;;;;;;;22.96;48.96;100005.41;4451291;32;34327;-80
2023/05/21 00:35:52;;;;;;;;;;;;;;;23.54;47.58;100006.97;4445353;32;33189;-79
2023/05/21 00:38:20;;;;;;;;;;;;;;;23.52;47.51;100002.59;4449575;32;34918;-79
2023/05/21 00:40:48;;;;;;;;;;;;;;;23.44;47.68;100014.97;4444025;32;34661;-79
2023/05/21 00:43:16;;;;;;;;;;;;;;;22.90;49.09;100012.47;4437051;32;35083;-79
2023/05/21 00:45:43;;;;;;;;;;;;;;;22.71;49.50;100016.91;4438342;32;33588;-79
2023/05/21 00:48:11;;;;;;;;;;;;;;;22.58;50.01;100016.94;4441714;32;34729;-79
2023/05/21 00:50:39;;;;;;;;;;;;;;;21.99;51.31;100001.91;4444127;32;33995;-79
2023/05/21 00:53:08;;;;;;;;;;;;;;;22.55;49.69;100001.06;4427733;32;34415;-79
2023/05/21 00:55:36;;;;;;;;;;;;;;;23.34;48.13;100000.91;4436838;32;33237;-79
2023/05/21 00:58:04;;;;;;;;;;;;;;;22.91;48.90;99998.41;4429459;32;34325;-79
2023/05/21 01:00:32;;;;;;;;;;;;;;;22.41;50.29;100007.22;4440190;32;33220;-79
2023/05/21 01:03:00;;;;;;;;;;;;;;;22.85;49.24;99995.75;4446594;32;34210;-79
2023/05/21 01:05:27;;;;;;;;;;;;;;;22.61;49.87;99994.91;4439927;32;33014;-79
2023/05/21 01:07:55;;;;;;;;;;;;;;;22.78;49.40;100000.16;4452292;32;34807;-79
2023/05/21 01:10:23;;;;;;;;;;;;;;;22.88;49.25;99993.97;4446548;32;34028;-79
2023/05/21 01:12:51;;;;;;;;;;;;;;;22.28;50.80;99994.03;4448122;32;34113;-78
2023/05/21 01:15:18;;;;;;;;;;;;;;;22.43;50.45;99997.59;4432246;32;34028;-79
2023/05/21 01:17:47;;;;;;;;;;;;;;;22.48;50.39;99994.03;4425402;32;32656;-78
2023/05/21 01:20:16;;;;;;;;;;;;;;;22.46;50.53;99992.28;4436884;32;34040;-79
2023/05/21 01:22:53;;;;;;;;;;;;;;;22.50;50.42;99984.38;4430457;32;34469;-78
2023/05/21 01:25:23;;;;;;;;;;;;;;;23.17;48.49;99974.56;4440134;32;34030;-79
2023/05/21 01:27:50;;;;;;;;;;;;;;;22.84;49.04;99980.78;4426163;32;34409;-78
2023/05/21 01:30:18;;;;;;;;;;;;;;;23.08;48.70;99975.47;4432821;32;34281;-79
2023/05/21 01:32:46;;;;;;;;;;;;;;;23.33;48.08;99978.91;4437393;32;34336;-79
2023/05/21 01:35:14;;;;;;;;;;;;;;;22.87;49.05;99980.78;4449136;32;33670;-79
2023/05/21 01:37:46;;;;;;;;;;;;;;;22.63;49.78;99979.94;4435985;32;33759;-79
2023/05/21 01:40:13;;;;;;;;;;;;;;;22.91;49.00;99975.50;4433511;32;34088;-79
2023/05/21 01:42:42;;;;;;;;;;;;;;;22.27;50.64;99980.84;4432432;32;32630;-79
2023/05/21 01:45:10;;;;;;;;;;;;;;;22.23;50.90;99987.84;4432142;32;33230;-79
2023/05/21 01:47:38;;;;;;;;;;;;;;;21.95;51.74;99986.97;4437517;32;34198;-78
2023/05/21 01:50:05;;;;;;;;;;;;;;;22.40;50.70;99990.53;4452627;32;34163;-79
2023/05/21 01:52:33;;;;;;;;;;;;;;;22.25;50.90;99988.78;4452816;32;34399;-79
2023/05/21 01:55:00;;;;;;;;;;;;;;;22.40;50.50;99985.25;4442076;32;34399;-79
2023/05/21 01:57:27;;;;;;;;;;;;;;;23.03;48.69;99985.19;4448079;32;34623;-79
2023/05/21 01:59:55;;;;;;;;;;;;;;;22.52;50.03;99987.00;4434445;32;33938;-79
2023/05/21 02:02:22;;;;;;;;;;;;;;;22.25;50.23;99990.53;4421152;32;34338;-79
2023/05/21 02:04:50;;;;;;;;;;;;;;;21.93;51.11;99988.72;4437700;32;34012;-79
2023/05/21 02:07:18;;;;;;;;;;;;;;;22.43;50.04;99985.25;4412054;32;32702;-78
2023/05/21 02:09:45;;;;;;;;;;;;;;;22.35;50.21;99989.66;4448104;32;33529;-78
2023/05/21 02:12:13;;;;;;;;;;;;;;;22.04;50.76;99997.53;4439223;32;34297;-78
2023/05/21 02:14:41;;;;;;;;;;;;;;;22.55;49.46;99995.78;4444031;32;33664;-78
2023/05/21 02:17:09;;;;;;;;;;;;;;;22.10;50.42;99991.38;4452705;32;34842;-78
2023/05/21 02:19:36;;;;;;;;;;;;;;;22.27;50.13;99984.38;4438393;32;34978;-78
2023/05/21 02:22:04;;;;;;;;;;;;;;;22.40;50.17;99985.25;4443768;32;34240;-79
2023/05/21 02:24:31;;;;;;;;;;;;;;;22.56;49.44;99987.00;4452713;32;33678;-78
2023/05/21 02:26:59;;;;;;;;;;;;;;;22.55;49.37;99985.22;4441745;32;33889;-78
2023/05/21 02:29:26;;;;;;;;;;;;;;;22.92;48.14;99979.88;4448660;32;34951;-79
2023/05/21 02:31:54;;;;;;;;;;;;;;;23.08;47.68;99979.88;4449424;32;34113;-78
2023/05/21 02:34:21;;;;;;;;;;;;;;;22.63;48.81;99974.66;4445807;32;33369;-78
2023/05/21 02:36:51;;;;;;;;;;;;;;;23.05;47.55;99982.53;4446847;32;34797;-78
2023/05/21 02:39:18;;;;;;;;;;;;;;;23.54;46.53;99985.81;4439946;32;34279;-78
2023/05/21 02:41:46;;;;;;;;;;;;;;;22.54;49.08;99988.78;4439555;32;34091;-78
2023/05/21 02:44:13;;;;;;;;;;;;;;;23.15;47.57;99984.25;4440749;32;33423;-78
2023/05/21 02:46:41;;;;;;;;;;;;;;;23.29;47.16;99982.41;4452432;32;34245;-78
2023/05/21 02:49:08;;;;;;;;;;;;;;;23.42;47.16;99987.66;4424500;32;32452;-79
2023/05/21 02:51:36;;;;;;;;;;;;;;;22.98;48.24;99994.84;4444064;32;34995;-78
2023/05/21 02:54:03;;;;;;;;;;;;;;;22.93;48.24;99991.34;4435525;32;33072;-78
2023/05/21 02:56:30;;;;;;;;;;;;;;;22.71;48.98;99985.22;4442695;32;34179;-78
2023/05/21 02:58:58;;;;;;;;;;;;;;;22.47;49.30;99992.28;4452099;32;34231;-79
2023/05/21 03:01:25;;;;;;;;;;;;;;;22.94;48.47;99999.25;4451265;32;34981;-79
2023/05/21 03:03:53;;;;;;;;;;;;;;;23.22;47.60;99983.34;4440744;32;34212;-79
2023/05/21 03:06:21;;;;;;;;;;;;;;;23.03;48.26;99993.09;4445400;32;34036;-78
2023/05/21 03:08:48;;;;;;;;;;;;;;;23.18;47.87;99986.91;4445943;32;34221;-79
2023/05/21 03:11:17;;;;;;;;;;;;;;;22.78;48.81;99979.03;4453851;32;34524;-79
2023/05/21 03:13:45;;;;;;;;;;;;;;;23.66;46.71;99990.19;4425235;32;33056;-79
2023/05/21 03:16:12;;;;;;;;;;;;;;;23.34;47.57;99982.41;4445093;32;33582;-79
2023/05/21 03:18:40;;;;;;;;;;;;;;;23.20;47.52;99981.56;4434499;32;33527;-79
2023/05/21 03:21:07;;;;;;;;;;;;;;;23.06;48.11;99987.78;4439723;32;34778;-79
2023/05/21 03:23:35;;;;;;;;;;;;;;;22.67;48.95;99979.06;4454225;32;33003;-78
2023/05/21 03:26:02;;;;;;;;;;;;;;;23.39;47.29;99985.03;4453599;32;34347;-79
2023/05/21 03:28:30;;;;;;;;;;;;;;;22.80;48.82;99990.47;4440412;32;34199;-78
2023/05/21 03:30:58;;;;;;;;;;;;;;;22.89;48.69;99977.25;4454423;32;34718;-79
2023/05/21 03:33:27;;;;;;;;;;;;;;;23.14;47.72;99979.84;4441408;32;32758;-79
2023/05/21 03:35:55;;;;;;;;;;;;;;;22.56;49.40;99980.81;4440448;32;34190;-79
2023/05/21 03:38:22;;;;;;;;;;;;;;;22.62;49.23;99974.66;4454249;32;34247;-79
2023/05/21 03:40:49;;;;;;;;;;;;;;;22.92;48.51;99979.00;4444726;32;34722;-79
2023/05/21 03:43:17;;;;;;;;;;;;;;;22.96;48.71;99981.62;4433230;32;31370;-79
2023/05/21 03:45:44;;;;;;;;;;;;;;;22.49;49.30;99990.53;4438274;32;33918;-79
2023/05/21 03:48:16;;;;;;;;;;;;;;;22.48;49.32;99991.38;4450888;32;34006;-79
2023/05/21 03:50:44;;;;;;;;;;;;;;;22.86;48.53;99979.91;4446928;32;34147;-79
2023/05/21 03:53:12;;;;;;;;;;;;;;;23.26;47.50;99985.09;4424825;32;33168;-79
2023/05/21 03:55:40;;;;;;;;;;;;;;;23.08;48.00;99986.06;4427619;32;33321;-79
2023/05/21 03:58:09;;;;;;;;;;;;;;;22.71;48.80;99979.94;4437137;32;35045;-79
2023/05/21 04:00:37;;;;;;;;;;;;;;;22.42;49.20;99994.03;4407234;32;32613;-79
2023/05/21 04:03:05;;;;;;;;;;;;;;;22.43;49.59;99985.25;4414211;32;33923;-79
2023/05/21 04:05:33;;;;;;;;;;;;;;;23.09;47.61;99992.19;4408679;32;33822;-79
2023/05/21 04:08:01;;;;;;;;;;;;;;;22.44;48.94;99989.62;4418275;32;34301;-79
2023/05/21 04:10:29;;;;;;;;;;;;;;;21.91;49.92;99987.84;4439696;32;34523;-79
2023/05/21 04:12:56;;;;;;;;;;;;;;;21.34;51.40;99991.19;4426128;32;33260;-79
2023/05/21 04:15:24;;;;;;;;;;;;;;;21.32;51.80;99992.87;4435758;32;33917;-79
2023/05/21 04:17:53;;;;;;;7.85;4.78;;;;;;;21.19;52.31;99999.00;4425411;32;34574;-79
2023/05/21 04:20:21;;;;;;;8.98;6.22;;;;;;;21.78;50.94;99990.44;4434192;32;33766;-79
2023/05/21 04:22:48;;;;;;;9.43;5.93;;;;;;;21.33;52.27;99996.44;4411006;32;35009;-79
2023/05/21 04:25:16;;;;;;;7.55;4.78;;;;;;;21.15;53.03;100000.75;4429085;32;33681;-79
2023/05/21 04:27:46;;;;;;;;;;;;;;;22.31;49.77;99998.44;4447694;32;33800;-79
2023/05/21 04:30:13;;;;;;;;;;;;;;;22.83;48.70;99998.41;4438685;32;35213;-79
2023/05/21 04:32:44;;;;;;;;;;;;;;;21.45;51.96;99998.25;4448908;32;34168;-79
2023/05/21 04:35:14;;;;;;;;;;;;;;;21.84;51.28;99993.97;4446072;32;34117;-79
2023/05/21 04:37:44;;;;;;;;;;;;;;;22.53;49.33;99996.69;4447815;32;35220;-79
2023/05/21 04:40:17;;;;;;;;;;;;;;;22.63;48.99;100005.47;4445340;32;34180;-79
2023/05/21 04:42:45;;;;;;;;;;;;;;;21.85;50.62;99996.62;4447274;32;33478;-79
2023/05/21 04:45:13;;;;;;;;;;;;;;;22.04;50.51;100002.81;4449223;32;34032;-79
2023/05/21 04:47:41;;;;;;;;;;;;;;;21.51;51.63;99998.28;4452608;32;34053;-79
2023/05/21 04:50:09;;;;;;;;;;;;;;;21.87;50.93;99999.25;4439842;32;34022;-79
2023/05/21 04:52:39;;;;;;;;;;;;;;;21.35;52.20;99992.03;4449827;32;33523;-79
2023/05/21 04:55:06;;;;;;;;;;;;;;;21.33;52.33;99991.16;4449820;32;33839;-79
2023/05/21 04:57:34;;;;;;;;;;;;;;;21.86;51.11;99992.22;4443273;32;35039;-79
2023/05/21 05:00:02;;;;;;;;;;;;;;;22.32;50.03;99997.56;4452535;32;34972;-79
2023/05/21 05:02:31;;;;;;;;;;;;;;;21.81;50.67;99992.22;4449957;32;32995;-79
2023/05/21 05:04:59;;;;;;;;;;;;;;;22.60;49.25;100002.81;4447389;32;34377;-80
2023/05/21 05:07:26;;;;;;;;;;;;;;;22.99;48.46;99990.44;4443820;32;34807;-79
2023/05/21 05:09:54;;;;;;;;;;;;;;;22.52;49.23;99995.81;4449240;32;34137;-79
2023/05/21 05:12:22;;;;;;;;;;;;;;;22.40;49.34;100000.22;4450161;32;33308;-79
2023/05/21 05:14:49;;;;;;;;;;;;;;;21.82;51.02;99995.72;4448145;32;34912;-79
2023/05/21 05:17:17;;;;;;;;;;;;;;;22.17;50.28;99994.03;4437071;32;34039;-79
2023/05/21 05:19:45;;;;;;;;;;;;;;;23.05;48.54;99995.75;4448143;32;32906;-79
2023/05/21 05:22:12;;;;;;;;;;;;;;;22.38;49.89;99987.00;4447264;32;33832;-80
2023/05/21 05:24:40;;;;;;;;;;;;;;;22.20;50.31;99987.88;4442538;32;34322;-79
2023/05/21 05:27:08;;;;;;;;;;;;;;;21.74;51.07;99988.66;4437455;32;34746;-79
2023/05/21 05:29:35;;;;;;;;;;;;;;;22.92;49.00;99990.44;4440502;32;35102;-79
2023/05/21 05:32:03;;;;;;;;;;;;;;;22.19;50.74;99992.28;4439984;32;33073;-79
2023/05/21 05:34:31;;;;;;;;;;;;;;;23.74;47.32;99993.66;4427384;32;34164;-79
2023/05/21 05:36:58;;;;;;;;;;;;;;;23.47;47.95;99993.78;4442528;32;34283;-79
2023/05/21 05:39:25;;;;;;;;;;;;;;;22.74;49.20;100001.94;4445845;32;35214;-79
2023/05/21 05:41:53;;;;;;;;;;;;;;;22.72;49.93;99997.53;4448717;32;33639;-79
2023/05/21 05:44:21;;;;;;;;;;;;;;;23.07;48.73;99988.69;4440499;32;34870;-80
2023/05/21 05:46:48;;;;;;;;;;;;;;;22.29;50.53;99998.47;4434385;32;34309;-79
2023/05/21 05:49:15;;;;;;;;;;;;;;;22.51;50.11;99999.31;4449844;32;33876;-80
2023/05/21 05:51:43;;;;;;;;;;;;;;;22.68;49.78;99993.16;4441598;32;33428;-79
2023/05/21 05:54:10;;;;;;;;;;;;;;;22.79;49.37;99994.00;4450120;32;34205;-80
2023/05/21 05:56:38;;;;;;;;;;;;;;;23.09;48.45;99985.16;4442586;32;34202;-79
2023/05/21 05:59:06;;;;;;;;;;;;;;;23.05;48.79;99990.47;4437445;32;34360;-79
2023/05/21 06:01:33;;;;;;;;;;;;;;;24.31;45.76;99985.34;4437577;32;33627;-80
2023/05/21 06:04:01;;;;;;;6.28;4.05;;;;;;;24.20;45.55;99976.59;4440221;32;34802;-79
2023/05/21 06:06:30;;;;;;;7.82;4.50;;;;;;;23.14;47.81;99979.84;4440870;32;34411;-79
2023/05/21 06:08:57;;;;;;;9.23;4.80;;;;;;;22.91;48.77;99983.41;4448130;32;33912;-79
2023/05/21 06:11:25;;;;;;;;;;;;;;;23.35;47.94;99985.06;4447675;32;34266;-80
2023/05/21 06:13:52;;;;;;;;;;;;;;;23.22;46.84;99980.72;4445869;32;34050;-80
2023/05/21 06:16:20;;;;;;;;;;;;;;;22.75;48.14;99981.69;4450976;32;34079;-80
2023/05/21 06:18:48;;;;;;;;;;;;;;;23.55;46.50;99976.16;4451986;32;34387;-80
2023/05/21 06:21:15;;;;;;;;;;;;;;;23.13;47.59;99978.09;4452150;32;33469;-79
2023/05/21 06:23:43;;;;;;;;;;;;;;;22.91;48.67;99978.13;4452000;32;34152;-79
2023/05/21 06:26:11;;;;;;;;;;;;;;;23.00;48.11;99978.97;4451419;32;33963;-79
2023/05/21 06:28:39;;;;;;;;;;;;;;;23.39;47.57;99977.09;4444927;32;34338;-79
2023/05/21 06:31:07;;;;;;;;;;;;;;;24.17;46.39;99975.78;4436616;32;33607;-79
2023/05/21 06:33:35;;;;;;;;;;;;;;;24.59;44.10;99981.59;4445825;32;33966;-79
2023/05/21 06:36:02;;;;;;;;;;;;;;;24.76;44.98;99974.34;4446322;32;34242;-80
2023/05/21 06:38:30;;;;;;;;;;;;;;;24.86;44.95;99977.78;4434897;32;35030;-80
2023/05/21 06:40:57;;;;;;;;;;;;;;;24.87;44.18;99975.12;4435153;32;33435;-80
2023/05/21 06:43:27;;;;;;;;;;;;;;;24.38;44.96;99978.22;4433210;32;33509;-79
2023/05/21 06:45:56;;;;;;;;;;;;;;;25.59;42.91;99960.09;4451413;32;33664;-80
2023/05/21 06:48:25;;;;;;;;;;;;;;;24.52;45.02;99973.72;4447580;32;34976;-80
2023/05/21 06:50:52;;;;;;;;;;;;;;;25.12;44.03;99964.25;4447704;32;32993;-80
2023/05/21 06:53:19;;;;;;;;;;;;;;;25.16;43.61;99965.94;4454175;32;34048;-80
2023/05/21 06:55:47;;;;;;;;;;;;;;;25.52;43.42;99963.75;4426836;32;34757;-80
2023/05/21 06:58:15;;;;;;;;;;;;;;;25.35;45.26;99949.84;4452912;32;34149;-80
2023/05/21 07:00:42;;;;;;;;;;;;;;;26.24;42.41;99954.72;4453531;32;34272;-80
2023/05/21 07:03:10;;;;;;;;;;;;;;;25.55;42.81;99961.06;4439679;32;33723;-80
2023/05/21 07:05:37;;;;;;;;;;;;;;;25.73;42.21;99961.69;4439893;32;33690;-80
2023/05/21 07:08:05;;;;;;;;;;;;;;;26.52;40.86;99956.91;4449442;32;34486;-79
2023/05/21 07:10:33;;;;;;;;;;;;;;;27.12;39.52;99949.56;4438193;32;34238;-81
2023/05/21 07:13:01;;;;;;;;;;;;;;;26.82;40.45;99962.56;4445081;32;33541;-80
2023/05/21 07:15:28;;;;;;;;;;;;;;;26.94;40.40;99956.13;4438741;32;34231;-80
2023/05/21 07:17:56;;;;;;;;;;;;;;;26.98;39.38;99949.84;4427332;32;35009;-79
2023/05/21 07:20:23;;;;;;;;;;;;;;;26.31;40.82;99957.25;4445155;32;33596;-80
2023/05/21 07:22:51;;;;;;;;;;;;;;;28.17;37.85;99953.44;4444582;32;34271;-80
2023/05/21 07:25:19;;;;;;;;;;;;;;;28.68;36.25;99955.66;4437884;32;34880;-80
2023/05/21 07:27:46;;;;;;;;;;;;;;;30.14;34.10;99953.13;4452397;32;34483;-80
2023/05/21 07:30:14;;;;;;;;;;;;;;;31.08;32.55;99942.72;4435522;32;32985;-81
2023/05/21 07:32:42;;;;;;;;;;;;;;;31.02;32.86;99942.94;4439208;32;33492;-80
2023/05/21 07:35:09;;;;;;;;;;;;;;;31.62;30.35;99942.47;4450806;32;34203;-80
2023/05/21 07:37:36;;;;;;;;;;;;;;;33.25;28.32;99946.25;4453179;32;35185;-81
2023/05/21 07:40:06;;;;;;;;;;;;;;;33.37;28.09;99940.28;4454320;32;33604;-81
2023/05/21 07:42:34;;;;;;;;;;;;;;;34.63;26.46;99936.72;4447188;32;33905;-80
2023/05/21 07:45:01;;;;;;;;;;;;;;;33.28;27.25;99943.41;4435866;32;33659;-80
2023/05/21 07:47:31;;;;;;;;;;;;;;;32.94;28.27;99936.91;4433111;32;34834;-79
2023/05/21 07:49:58;;;;;;;;;;;;;;;34.89;25.40;99929.12;4440402;32;33723;-81
2023/05/21 07:52:25;;;;;;;;;;;;;;;34.91;25.81;99929.91;4443935;32;35065;-81
2023/05/21 07:54:53;;;;;;;;;;;;;;;35.68;24.91;99939.16;4426599;32;34218;-81
2023/05/21 07:57:22;;;;;;;;;;;;;;;35.92;24.67;99927.91;4442841;32;34976;-81
2023/05/21 07:59:49;;;;;;;;;;;;;;;34.76;25.84;99928.03;4448990;32;33610;-80
2023/05/21 08:02:17;;;;;;;;;;;;;;;35.07;25.27;99926.38;4451283;32;33888;-80
2023/05/21 08:04:45;;;;;;;;;;;;;;;34.32;26.18;99925.84;4438535;32;34630;-81
2023/05/21 08:07:15;;;;;;;;;;;;;;;35.30;25.04;99928.69;4438913;32;34359;-81
2023/05/21 08:09:43;;;;;;;;;;;;;;;35.90;24.31;99933.37;4438635;32;33658;-81
2023/05/21 08:12:14;;;;;;;;;;;;;;;35.64;24.31;99937.56;4449015;32;34101;-81
2023/05/21 08:14:43;;;;;;;;;;;;;;;35.15;25.56;99924.13;4452181;32;34415;-81
2023/05/21 08:17:11;;;;;;;;;;;;;;;34.53;25.65;99932.78;4450640;32;35200;-80
2023/05/21 08:19:39;;;;;;;;;;;;;;;34.61;25.31;99930.56;4436334;32;33193;-83
2023/05/21 08:22:06;;;;;;;;;;;;;;;34.30;25.75;99931.28;4437377;32;33982;-81
2023/05/21 08:24:34;;;;;;;;;;;;;;;33.52;26.72;99921.72;4437666;32;34080;-82
2023/05/21 08:27:01;;;;;;;7.70;4.15;;;;;;;33.04;27.22;99931.97;4451919;32;35220;-82
2023/05/21 08:29:29;;;;;;;;;;;;;;;33.53;26.75;99935.03;4447369;32;33627;-82
2023/05/21 08:31:57;;;;;;;8.85;3.83;;;;;;;33.33;27.17;99927.97;4442166;32;33464;-81
2023/05/21 08:34:25;;;;;;;7.75;4.45;;;;;;;32.24;28.63;99922.97;4420238;32;33355;-82
2023/05/21 08:36:54;;;;;;;6.68;4.03;;;;;;;32.51;28.45;99928.06;4433636;32;34065;-82
2023/05/21 08:39:24;;;;;;;7.80;4.03;;;;;;;32.71;28.56;99930.75;4432780;32;32600;-81
2023/05/21 08:41:56;;;;;;;7.57;4.40;;;;;;;32.74;28.97;99920.81;4444100;32;34258;-81
2023/05/21 08:44:25;;;;;;;;;;;;;;;32.85;29.10;99921.22;4427274;32;34413;-84
2023/05/21 08:46:52;;;;;;;;;;;;;;;32.77;29.47;99926.94;4445651;32;34449;-81
2023/05/21 08:49:20;;;;;;;;;;;;;;;33.23;29.08;99926.66;4428787;32;32579;-81
2023/05/21 08:51:49;;;;;;;;;;;;;;;33.99;27.51;99927.44;4433668;32;34817;-82
2023/05/21 08:54:16;;;;;;;;;;;;;;;33.61;28.24;99926.63;4449383;32;35141;-81
2023/05/21 08:56:45;;;;;;;;;;;;;;;33.96;26.98;99924.03;4448405;32;34744;-81
2023/05/21 08:59:15;;;;;;;;;;;;;;;33.93;27.78;99924.22;4432308;32;34273;-80
2023/05/21 09:01:44;;;;;;;;;;;;;;;32.54;28.04;99927.91;4428967;32;33859;-81
2023/05/21 09:04:15;;;;;;;6.97;4.07;;;;;;;31.80;30.43;99931.03;4438131;32;34444;-80
2023/05/21 09:06:49;;;;;;;8.07;4.22;;;;;;;31.48;30.04;99930.50;4423161;32;33119;-80
2023/05/21 09:09:27;;;;;;;10.90;4.62;;;;;;;31.39;30.45;99930.84;4431965;32;33779;-82
2023/05/21 09:11:54;;;;;;;7.30;4.25;;;;;;;31.45;31.71;99930.59;4437438;32;34045;-81
2023/05/21 09:14:22;;;;;;;7.62;4.28;;;;;;;31.72;29.77;99927.78;4449706;32;33554;-80
2023/05/21 09:16:51;;;;;;;;;;;;;;;31.41;30.50;99923.63;4439496;32;34020;-81
2023/05/21 09:19:19;;;;;;;;;;;;;;;31.26;30.67;99924.22;4434100;32;34414;-80
2023/05/21 09:21:47;;;;;;;;;;;;;;;32.02;30.37;99930.16;4431764;32;33756;-80
2023/05/21 09:24:14;;;;;;;;;;;;;;;32.16;29.48;99930.44;4434603;32;34538;-80
2023/05/21 09:26:42;;;;;;;;;;;;;;;31.82;30.27;99918.44;4425197;32;33323;-81
2023/05/21 09:29:12;;;;;;;;;;;;;;;31.98;29.85;99925.84;4429458;32;31654;-80
2023/05/21 09:31:45;;;;;;;;;;;;;;;31.72;30.08;99922.44;4419198;32;33825;-81
2023/05/21 09:34:13;;;;;;;;;;;;;;;31.67;30.09;99924.41;4426412;32;33429;-80
2023/05/21 09:36:42;;;;;;;;;;;;;;;32.56;29.07;99920.72;4430732;32;34936;-82
2023/05/21 09:39:15;;;;;;;;;;;;;;;32.23;32.35;99923.88;4438964;32;34184;-82
2023/05/21 09:41:43;;;;;;;;;;;;;;;32.64;29.52;99918.53;4436929;32;34781;-81
2023/05/21 09:44:10;;;;;;;;;;;;;;;33.08;28.96;99918.34;4446175;32;34076;-82
2023/05/21 09:46:40;;;;;;;;;;;;;;;32.54;27.99;99922.56;4431992;32;35056;-86
2023/05/21 09:49:21;;;;;;;;;;;;;;;32.97;28.51;99915.28;4444987;32;32423;-81
2023/05/21 09:51:48;;;;;;;;;;;;;;;33.05;28.06;99918.50;4437309;32;34660;-82
2023/05/21 09:54:16;;;;;;;;;;;;;;;33.38;28.42;99915.19;4436017;32;33906;-82
2023/05/21 09:56:43;;;;;;;;;;;;;;;33.02;29.49;99915.94;4446342;32;34145;-82
2023/05/21 09:59:10;;;;;;;;;;;;;;;32.93;29.83;99919.03;4447025;32;33439;-82
2023/05/21 10:01:38;;;;;;;;;;;;;;;33.36;27.88;99917.09;4426608;32;34836;-82
2023/05/21 10:52:14;;;;;;;;;;;;;;;33.38;27.04;99877.59;4336528;26;35280;-82
2023/05/21 10:54:55;;;;;;;;;;;;;;;34.19;25.46;99883.47;4455145;32;33718;-83
2023/05/21 10:57:33;;;;;;;;;;;;;;;34.00;25.87;99877.28;4449349;32;33703;-83
2023/05/21 11:00:00;;;;;;;;;;;;;;;34.99;24.59;99876.53;4454153;32;34695;-83
2023/05/21 11:02:30;;;;;;;;;;;;;;;34.07;26.20;99886.75;4443257;32;34179;-82
2023/05/21 11:04:58;;;;;;;;;;;;;;;33.96;26.48;99886.41;4452471;32;34516;-83
2023/05/21 11:07:44;;;;;;;;;;;;;;;33.81;26.03;99885.41;4443172;32;34224;-82
2023/05/21 11:10:31;;;;;;;;;;;;;;;33.68;25.67;99871.69;4442840;32;34107;-82
2023/05/21 11:13:11;;;;;;;;;;;;;;;35.11;25.39;99874.09;4446267;32;34497;-83
2023/05/21 11:15:57;;;;;;;;;;;;;;;34.53;25.18;99870.91;4450668;32;34900;-83
2023/05/21 11:18:34;;;;;;;;;;;;;;;33.73;26.83;99871.44;4429318;32;32000;-83
2023/05/21 11:21:08;;;;;;;;;;;;;;;33.93;25.57;99878.53;4445349;32;34277;-83
2023/05/21 11:24:14;;;;;;;;;;;;;;;34.90;24.97;99871.66;4451330;32;34025;-82
2023/05/21 11:26:47;;;;;;;;;;;;;;;34.61;27.08;99871.37;4396984;32;35030;-83
2023/05/21 11:29:14;;;;;;;;;;;;;;;34.83;25.11;99863.06;4395937;32;33716;-82
2023/05/21 11:31:45;;;;;;;;;;;;;;;35.13;24.67;99861.44;4428406;32;33341;-83
2023/05/21 11:34:20;;;;;;;;;;;;;;;35.49;23.42;99873.81;4442900;32;33725;-82
2023/05/21 11:36:48;;;;;;;;;;;;;;;35.02;23.60;99870.97;4444999;32;34448;-83
2023/05/21 11:39:20;;;;;;;;;;;;;;;34.85;24.56;99866.53;4440397;32;34253;-82
2023/05/21 11:41:51;;;;;;;;;;;;;;;34.77;23.05;99865.19;4441394;32;34491;-83
2023/05/21 11:44:20;;;;;;;;;;;;;;;34.42;24.03;99857.16;4450114;32;34977;-83
2023/05/21 11:46:48;;;;;;;;;;;;;;;34.21;24.83;99860.06;4446048;32;34443;-82
2023/05/21 11:49:15;;;;;;;;;;;;;;;34.22;24.53;99851.03;4447955;32;32959;-82
2023/05/21 11:51:42;;;;;;;;;;;;;;;34.16;26.29;99854.06;4452546;32;34774;-82
2023/05/21 11:54:10;;;;;;;;;;;;;;;34.42;24.39;99862.56;4441891;32;33749;-83
2023/05/21 11:56:40;;;;;;;;;;;;;;;34.73;25.09;99844.78;4448161;32;34222;-82
2023/05/21 11:59:14;;;;;;;;;;;;;;;35.29;24.07;99856.94;4441225;32;33635;-83
2023/05/21 12:01:45;;;;;;;;;;;;;;;35.61;24.76;99860.47;4441313;32;33913;-83
2023/05/21 12:04:12;;;;;;;;;;;;;;;35.21;25.59;99854.69;4450238;32;33874;-83
2023/05/21 12:06:43;;;;;;;;;;;;;;;35.30;23.77;99847.91;4445180;32;35153;-83
2023/05/21 12:09:10;;;;;;;;;;;;;;;35.35;22.83;99845.84;4444608;32;32795;-83
2023/05/21 12:11:40;;;;;;;;;;;;;;;35.29;23.46;99846.16;4451384;32;34882;-83
2023/05/21 12:14:11;;;;;;;;;;;;;;;35.09;22.65;99841.03;4454060;32;35395;-83
2023/05/21 12:16:39;;;;;;;;;;;;;;;34.12;24.24;99835.44;4427385;32;33032;-82
2023/05/21 12:19:06;;;;;;;;;;;;;;;34.98;23.29;99837.12;4444875;32;33315;-83
2023/05/21 12:21:34;;;;;;;;;;;;;;;35.27;23.53;99834.59;4451100;32;33716;-83
2023/05/21 12:24:01;;;;;;;;;;;;;;;34.69;23.39;99829.78;4441008;32;33909;-83
2023/05/21 12:26:31;;;;;;;;;;;;;;;35.25;23.26;99836.53;4448558;32;35072;-83
2023/05/21 12:28:59;;;;;;;;;;;;;;;34.43;24.93;99829.34;4446797;32;32823;-82
2023/05/21 12:31:28;;;;;;;;;;;;;;;35.52;22.78;99830.50;4442895;32;34733;-82
2023/05/21 12:33:55;;;;;;;;;;;;;;;36.70;22.79;99822.53;4451159;32;35025;-82
2023/05/21 12:36:26;;;;;;;;;;;;;;;34.96;24.67;99833.63;4429192;32;35201;-83
2023/05/21 12:38:55;;;;;;;;;;;;;;;35.44;23.75;99831.81;4452837;32;32651;-82
2023/05/21 12:41:22;;;;;;;;;;;;;;;35.49;23.00;99828.00;4442523;32;34207;-81
2023/05/21 12:43:49;;;;;;;;;;;;;;;35.26;23.32;99819.44;4450866;32;34165;-82
2023/05/21 12:46:17;;;;;;;;;;;;;;;35.97;22.85;99820.69;4445908;32;34229;-82
2023/05/21 12:48:48;;;;;;;;;;;;;;;35.18;24.08;99816.31;4446286;32;33868;-81
2023/05/21 12:51:16;;;;;;;;;;;;;;;35.91;23.15;99815.66;4439902;32;33975;-82
2023/05/21 12:53:43;;;;;;;;;;;;;;;36.37;22.86;99808.38;4441341;32;34487;-82
2023/05/21 12:56:10;;;;;;;;;;;;;;;35.12;24.09;99816.59;4450159;32;35140;-82
2023/05/21 12:58:38;;;;;;;;;;;;;;;35.39;23.10;99809.69;4444556;32;33393;-83
2023/05/21 13:01:09;;;;;;;;;;;;;;;34.81;25.53;99803.06;4446461;32;33726;-83
2023/05/21 13:03:37;;;;;;;;;;;;;;;35.49;22.83;99803.75;4440082;32;34478;-83
2023/05/21 13:06:04;;;;;;;;;;;;;;;34.54;25.50;99805.44;4441228;32;34111;-83
2023/05/21 13:08:35;;;;;;;;;;;;;;;33.64;25.97;99797.59;4442680;32;32925;-84
2023/05/21 13:11:02;;;;;;;;;;;;;;;34.46;24.80;99802.28;4453707;32;33231;-83
2023/05/21 13:13:29;;;;;;;;;;;;;;;34.27;23.99;99797.03;4441888;32;33976;-83
2023/05/21 13:15:59;;;;;;;;;;;;;;;35.00;22.95;99793.94;4426748;32;32924;-83
2023/05/21 13:18:26;;;;;;;;;;;;;;;34.16;26.08;99794.06;4448561;32;34377;-83
2023/05/21 13:20:53;;;;;;;;;;;;;;;33.88;25.90;99790.97;4446171;32;33914;-82
2023/05/21 13:23:21;;;;;;;;;;;;;;;35.21;24.06;99789.19;4442729;32;34311;-81
2023/05/21 13:25:48;;;;;;;;;;;;;;;34.77;24.57;99789.84;4450816;32;34776;-81
2023/05/21 13:28:15;;;;;;;;;;;;;;;34.68;24.85;99780.50;4442041;32;34088;-81
2023/05/21 13:30:43;;;;;;;;;;;;;;;35.23;23.69;99787.28;4446649;32;33934;-80
2023/05/21 13:33:10;;;;;;;;;;;;;;;34.47;25.65;99771.75;4448027;32;33834;-82
2023/05/21 13:35:38;;;;;;;;;;;;;;;34.09;24.75;99771.94;4440632;32;34986;-82